Terminal Aerodrome Forecast
Issued by NWS Norman, OK

Home | Current Version | Previous Version | Text Only | Print | Product List | Glossary On
Versions: 1 2 3 4 5 6 7 8 9 10 11 12 13 14 15
000
FTUS44 KOUN 292340
TAFSPS
TAF
KSPS 292340Z 3000/3024 34012G16KT P6SM SCT040
      TEMPO 3001/3003 BKN012
     FM300600 34007KT 2SM BR SKC
     FM301400 36009KT P6SM SKC=

USA.gov is the U.S. government's official web portal to all federal, state and local government web resources and services.